sensor_id;sensor_type;location;lat;lon;timestamp;temperature;humidity
37242;DHT22;23135;51.078;12.108;2022-08-19T00:00:44;18.80;99.90
37242;DHT22;23135;51.078;12.108;2022-08-19T00:03:10;18.80;99.90
37242;DHT22;23135;51.078;12.108;2022-08-19T00:05:35;18.80;99.90
37242;DHT22;23135;51.078;12.108;2022-08-19T00:08:01;18.70;99.90
37242;DHT22;23135;51.078;12.108;2022-08-19T00:10:27;18.80;99.90
37242;DHT22;23135;51.078;12.108;2022-08-19T00:12:53;18.80;99.90
37242;DHT22;23135;51.078;12.108;2022-08-19T00:15:20;18.80;99.90
37242;DHT22;23135;51.078;12.108;2022-08-19T00:17:47;18.80;99.90
37242;DHT22;23135;51.078;12.108;2022-08-19T00:20:16;18.90;99.90
37242;DHT22;23135;51.078;12.108;2022-08-19T00:22:45;18.80;99.90
37242;DHT22;23135;51.078;12.108;2022-08-19T00:25:11;18.80;99.90
37242;DHT22;23135;51.078;12.108;2022-08-19T00:27:36;18.80;99.90
37242;DHT22;23135;51.078;12.108;2022-08-19T00:30:04;18.80;99.90
37242;DHT22;23135;51.078;12.108;2022-08-19T00:32:30;18.80;99.90
37242;DHT22;23135;51.078;12.108;2022-08-19T00:34:55;18.80;99.90
37242;DHT22;23135;51.078;12.108;2022-08-19T00:37:23;18.80;99.90
37242;DHT22;23135;51.078;12.108;2022-08-19T00:39:51;18.80;99.90
37242;DHT22;23135;51.078;12.108;2022-08-19T00:42:18;18.80;99.90
37242;DHT22;23135;51.078;12.108;2022-08-19T00:44:44;18.80;99.90
37242;DHT22;23135;51.078;12.108;2022-08-19T00:47:10;18.80;99.90
37242;DHT22;23135;51.078;12.108;2022-08-19T00:49:43;18.80;99.90
37242;DHT22;23135;51.078;12.108;2022-08-19T00:52:18;18.80;99.90
37242;DHT22;23135;51.078;12.108;2022-08-19T00:54:46;18.80;99.90
37242;DHT22;23135;51.078;12.108;2022-08-19T00:57:15;18.80;99.90
37242;DHT22;23135;51.078;12.108;2022-08-19T00:59:44;18.80;99.90
37242;DHT22;23135;51.078;12.108;2022-08-19T01:02:11;18.70;99.90
37242;DHT22;23135;51.078;12.108;2022-08-19T01:04:37;18.80;99.90
37242;DHT22;23135;51.078;12.108;2022-08-19T01:07:03;18.70;99.90
37242;DHT22;23135;51.078;12.108;2022-08-19T01:09:30;18.80;99.90
37242;DHT22;23135;51.078;12.108;2022-08-19T01:11:56;18.70;99.90
37242;DHT22;23135;51.078;12.108;2022-08-19T01:14:22;18.70;99.90
37242;DHT22;23135;51.078;12.108;2022-08-19T01:16:49;18.70;99.90
37242;DHT22;23135;51.078;12.108;2022-08-19T01:19:36;18.70;99.90
37242;DHT22;23135;51.078;12.108;2022-08-19T01:22:08;18.70;99.90
37242;DHT22;23135;51.078;12.108;2022-08-19T01:24:36;18.70;99.90
37242;DHT22;23135;51.078;12.108;2022-08-19T01:27:04;18.70;99.90
37242;DHT22;23135;51.078;12.108;2022-08-19T01:29:30;18.70;99.90
37242;DHT22;23135;51.078;12.108;2022-08-19T01:31:55;18.70;99.90
37242;DHT22;23135;51.078;12.108;2022-08-19T01:34:21;18.70;99.90
37242;DHT22;23135;51.078;12.108;2022-08-19T01:36:47;18.70;99.90
37242;DHT22;23135;51.078;12.108;2022-08-19T01:39:22;18.70;99.90
37242;DHT22;23135;51.078;12.108;2022-08-19T01:41:48;18.70;99.90
37242;DHT22;23135;51.078;12.108;2022-08-19T01:44:15;18.70;99.90
37242;DHT22;23135;51.078;12.108;2022-08-19T01:46:42;18.70;99.90
37242;DHT22;23135;51.078;12.108;2022-08-19T01:49:09;18.70;99.90
37242;DHT22;23135;51.078;12.108;2022-08-19T01:51:35;18.70;99.90
37242;DHT22;23135;51.078;12.108;2022-08-19T01:54:02;18.70;99.90
37242;DHT22;23135;51.078;12.108;2022-08-19T01:56:27;18.70;99.90
37242;DHT22;23135;51.078;12.108;2022-08-19T01:59:00;18.70;99.90
37242;DHT22;23135;51.078;12.108;2022-08-19T02:01:27;18.70;99.90
37242;DHT22;23135;51.078;12.108;2022-08-19T02:03:53;18.70;99.90
37242;DHT22;23135;51.078;12.108;2022-08-19T02:06:19;18.70;99.90
37242;DHT22;23135;51.078;12.108;2022-08-19T02:08:45;18.70;99.90
37242;DHT22;23135;51.078;12.108;2022-08-19T02:11:19;18.70;99.90
37242;DHT22;23135;51.078;12.108;2022-08-19T02:13:46;18.70;99.90
37242;DHT22;23135;51.078;12.108;2022-08-19T02:16:11;18.70;99.90
37242;DHT22;23135;51.078;12.108;2022-08-19T02:18:37;18.70;99.90
37242;DHT22;23135;51.078;12.108;2022-08-19T02:21:03;18.70;99.90
37242;DHT22;23135;51.078;12.108;2022-08-19T02:23:28;18.70;99.90
37242;DHT22;23135;51.078;12.108;2022-08-19T02:25:54;18.70;99.90
37242;DHT22;23135;51.078;12.108;2022-08-19T02:28:20;18.70;99.90
37242;DHT22;23135;51.078;12.108;2022-08-19T02:30:46;18.80;99.90
37242;DHT22;23135;51.078;12.108;2022-08-19T02:33:12;18.70;99.90
37242;DHT22;23135;51.078;12.108;2022-08-19T02:35:41;18.70;99.90
37242;DHT22;23135;51.078;12.108;2022-08-19T02:38:07;18.70;99.90
37242;DHT22;23135;51.078;12.108;2022-08-19T02:40:54;18.70;99.90
37242;DHT22;23135;51.078;12.108;2022-08-19T02:43:21;18.70;99.90
37242;DHT22;23135;51.078;12.108;2022-08-19T02:45:47;18.70;99.90
37242;DHT22;23135;51.078;12.108;2022-08-19T02:48:16;18.70;99.90
37242;DHT22;23135;51.078;12.108;2022-08-19T02:50:43;18.70;99.90
37242;DHT22;23135;51.078;12.108;2022-08-19T02:53:09;18.70;99.90
37242;DHT22;23135;51.078;12.108;2022-08-19T02:55:35;18.70;99.90
37242;DHT22;23135;51.078;12.108;2022-08-19T02:58:00;18.70;99.90
37242;DHT22;23135;51.078;12.108;2022-08-19T03:00:27;18.70;99.90
37242;DHT22;23135;51.078;12.108;2022-08-19T03:02:53;18.70;99.90
37242;DHT22;23135;51.078;12.108;2022-08-19T03:05:19;18.70;99.90
37242;DHT22;23135;51.078;12.108;2022-08-19T03:07:44;18.70;99.90
37242;DHT22;23135;51.078;12.108;2022-08-19T03:10:12;18.70;99.90
37242;DHT22;23135;51.078;12.108;2022-08-19T03:12:38;18.70;99.90
37242;DHT22;23135;51.078;12.108;2022-08-19T03:15:06;18.80;99.90
37242;DHT22;23135;51.078;12.108;2022-08-19T03:17:33;18.80;99.90
37242;DHT22;23135;51.078;12.108;2022-08-19T03:19:59;18.80;99.90
37242;DHT22;23135;51.078;12.108;2022-08-19T03:22:24;18.80;99.90
37242;DHT22;23135;51.078;12.108;2022-08-19T03:24:50;18.80;99.90
37242;DHT22;23135;51.078;12.108;2022-08-19T03:27:16;18.80;99.90
37242;DHT22;23135;51.078;12.108;2022-08-19T03:29:42;18.80;99.90
37242;DHT22;23135;51.078;12.108;2022-08-19T03:32:09;18.80;99.90
37242;DHT22;23135;51.078;12.108;2022-08-19T03:34:36;18.80;99.90
37242;DHT22;23135;51.078;12.108;2022-08-19T03:37:09;18.80;99.90
37242;DHT22;23135;51.078;12.108;2022-08-19T03:39:37;18.80;99.90
37242;DHT22;23135;51.078;12.108;2022-08-19T03:42:03;18.80;99.90
37242;DHT22;23135;51.078;12.108;2022-08-19T03:44:29;18.90;99.90
37242;DHT22;23135;51.078;12.108;2022-08-19T03:46:57;18.90;99.90
37242;DHT22;23135;51.078;12.108;2022-08-19T03:49:25;18.90;99.90
37242;DHT22;23135;51.078;12.108;2022-08-19T03:51:51;18.80;99.90
37242;DHT22;23135;51.078;12.108;2022-08-19T03:54:22;18.90;99.90
37242;DHT22;23135;51.078;12.108;2022-08-19T03:56:52;18.80;99.90
37242;DHT22;23135;51.078;12.108;2022-08-19T03:59:32;18.90;99.90
37242;DHT22;23135;51.078;12.108;2022-08-19T04:02:00;18.80;99.90
37242;DHT22;23135;51.078;12.108;2022-08-19T04:04:27;18.90;99.90
37242;DHT22;23135;51.078;12.108;2022-08-19T04:06:52;18.90;99.90
37242;DHT22;23135;51.078;12.108;2022-08-19T04:09:19;18.80;99.90
37242;DHT22;23135;51.078;12.108;2022-08-19T04:11:53;18.90;99.90
37242;DHT22;23135;51.078;12.108;2022-08-19T04:14:23;18.90;99.90
37242;DHT22;23135;51.078;12.108;2022-08-19T04:16:50;18.90;99.90
37242;DHT22;23135;51.078;12.108;2022-08-19T04:19:16;18.90;99.90
37242;DHT22;23135;51.078;12.108;2022-08-19T04:21:45;18.80;99.90
37242;DHT22;23135;51.078;12.108;2022-08-19T04:24:12;18.90;99.90
37242;DHT22;23135;51.078;12.108;2022-08-19T04:26:37;18.80;99.90
37242;DHT22;23135;51.078;12.108;2022-08-19T04:29:19;18.90;99.90
37242;DHT22;23135;51.078;12.108;2022-08-19T04:31:47;18.90;99.90
37242;DHT22;23135;51.078;12.108;2022-08-19T04:34:14;18.90;99.90
37242;DHT22;23135;51.078;12.108;2022-08-19T04:36:42;18.90;99.90
37242;DHT22;23135;51.078;12.108;2022-08-19T04:39:30;18.90;99.90
37242;DHT22;23135;51.078;12.108;2022-08-19T04:42:16;18.90;99.90
37242;DHT22;23135;51.078;12.108;2022-08-19T04:45:01;18.90;99.90
37242;DHT22;23135;51.078;12.108;2022-08-19T04:47:29;18.90;99.90
37242;DHT22;23135;51.078;12.108;2022-08-19T04:49:56;18.90;99.90
37242;DHT22;23135;51.078;12.108;2022-08-19T04:52:21;18.90;99.90
37242;DHT22;23135;51.078;12.108;2022-08-19T04:54:47;18.90;99.90
37242;DHT22;23135;51.078;12.108;2022-08-19T04:57:13;18.90;99.90
37242;DHT22;23135;51.078;12.108;2022-08-19T04:59:39;18.90;99.90
37242;DHT22;23135;51.078;12.108;2022-08-19T05:02:06;18.90;99.90
37242;DHT22;23135;51.078;12.108;2022-08-19T05:04:31;18.90;99.90
37242;DHT22;23135;51.078;12.108;2022-08-19T05:06:59;18.90;99.90
37242;DHT22;23135;51.078;12.108;2022-08-19T05:09:26;18.90;99.90
37242;DHT22;23135;51.078;12.108;2022-08-19T05:11:51;18.90;99.90
37242;DHT22;23135;51.078;12.108;2022-08-19T05:14:18;18.90;99.90
37242;DHT22;23135;51.078;12.108;2022-08-19T05:16:45;19.00;99.90
37242;DHT22;23135;51.078;12.108;2022-08-19T05:19:10;18.90;99.90
37242;DHT22;23135;51.078;12.108;2022-08-19T05:21:54;18.90;99.90
37242;DHT22;23135;51.078;12.108;2022-08-19T05:24:38;19.00;99.90
37242;DHT22;23135;51.078;12.108;2022-08-19T05:27:04;19.00;99.90
37242;DHT22;23135;51.078;12.108;2022-08-19T05:29:31;19.00;99.90
37242;DHT22;23135;51.078;12.108;2022-08-19T05:31:58;19.00;99.90
37242;DHT22;23135;51.078;12.108;2022-08-19T05:34:25;19.00;99.90
37242;DHT22;23135;51.078;12.108;2022-08-19T05:36:56;19.10;99.90
37242;DHT22;23135;51.078;12.108;2022-08-19T05:39:24;19.10;99.90
37242;DHT22;23135;51.078;12.108;2022-08-19T05:41:56;19.10;99.90
37242;DHT22;23135;51.078;12.108;2022-08-19T05:44:26;19.10;99.90
37242;DHT22;23135;51.078;12.108;2022-08-19T05:46:52;19.10;99.90
37242;DHT22;23135;51.078;12.108;2022-08-19T05:49:20;19.20;99.90
37242;DHT22;23135;51.078;12.108;2022-08-19T05:51:46;19.20;99.90
37242;DHT22;23135;51.078;12.108;2022-08-19T05:54:12;19.20;99.90
37242;DHT22;23135;51.078;12.108;2022-08-19T05:56:42;19.20;99.90
37242;DHT22;23135;51.078;12.108;2022-08-19T05:59:09;19.20;99.90
37242;DHT22;23135;51.078;12.108;2022-08-19T06:01:41;19.20;99.90
37242;DHT22;23135;51.078;12.108;2022-08-19T06:04:07;19.20;99.90
37242;DHT22;23135;51.078;12.108;2022-08-19T06:06:34;19.20;99.90
37242;DHT22;23135;51.078;12.108;2022-08-19T06:09:04;19.20;99.90
37242;DHT22;23135;51.078;12.108;2022-08-19T06:14:24;19.20;99.90
37242;DHT22;23135;51.078;12.108;2022-08-19T06:16:50;19.20;99.90
37242;DHT22;23135;51.078;12.108;2022-08-19T06:19:21;19.20;99.90
37242;DHT22;23135;51.078;12.108;2022-08-19T06:21:48;19.30;99.90
37242;DHT22;23135;51.078;12.108;2022-08-19T06:24:17;19.20;99.90
37242;DHT22;23135;51.078;12.108;2022-08-19T06:26:46;19.20;99.90
37242;DHT22;23135;51.078;12.108;2022-08-19T06:29:13;19.30;99.90
37242;DHT22;23135;51.078;12.108;2022-08-19T06:31:45;19.30;99.90
37242;DHT22;23135;51.078;12.108;2022-08-19T06:34:11;19.30;99.90
37242;DHT22;23135;51.078;12.108;2022-08-19T06:36:45;19.20;99.90
37242;DHT22;23135;51.078;12.108;2022-08-19T06:39:14;19.30;99.90
37242;DHT22;23135;51.078;12.108;2022-08-19T06:41:43;19.30;99.90
37242;DHT22;23135;51.078;12.108;2022-08-19T06:44:10;19.20;99.90
37242;DHT22;23135;51.078;12.108;2022-08-19T06:46:38;19.20;99.90
37242;DHT22;23135;51.078;12.108;2022-08-19T06:49:04;19.20;99.90
37242;DHT22;23135;51.078;12.108;2022-08-19T06:51:29;19.20;99.90
37242;DHT22;23135;51.078;12.108;2022-08-19T06:53:56;19.30;99.90
37242;DHT22;23135;51.078;12.108;2022-08-19T06:56:25;19.30;99.90
37242;DHT22;23135;51.078;12.108;2022-08-19T06:58:56;19.30;99.90
37242;DHT22;23135;51.078;12.108;2022-08-19T07:01:22;19.20;99.90
37242;DHT22;23135;51.078;12.108;2022-08-19T07:03:48;19.20;99.90
37242;DHT22;23135;51.078;12.108;2022-08-19T07:06:16;19.20;99.90
37242;DHT22;23135;51.078;12.108;2022-08-19T07:08:44;19.20;99.90
37242;DHT22;23135;51.078;12.108;2022-08-19T07:11:13;19.20;99.90
37242;DHT22;23135;51.078;12.108;2022-08-19T07:13:39;19.10;99.90
37242;DHT22;23135;51.078;12.108;2022-08-19T07:16:06;19.10;99.90
37242;DHT22;23135;51.078;12.108;2022-08-19T07:18:32;19.20;99.90
37242;DHT22;23135;51.078;12.108;2022-08-19T07:21:06;19.10;99.90
37242;DHT22;23135;51.078;12.108;2022-08-19T07:23:32;19.10;99.90
37242;DHT22;23135;51.078;12.108;2022-08-19T07:25:58;19.10;99.90
37242;DHT22;23135;51.078;12.108;2022-08-19T07:28:23;19.10;99.90
37242;DHT22;23135;51.078;12.108;2022-08-19T07:30:49;19.10;99.90
37242;DHT22;23135;51.078;12.108;2022-08-19T07:33:15;19.10;99.90
37242;DHT22;23135;51.078;12.108;2022-08-19T07:35:42;19.10;99.90
37242;DHT22;23135;51.078;12.108;2022-08-19T07:38:07;19.10;99.90
37242;DHT22;23135;51.078;12.108;2022-08-19T07:40:33;19.10;99.90
37242;DHT22;23135;51.078;12.108;2022-08-19T07:42:58;19.10;99.90
37242;DHT22;23135;51.078;12.108;2022-08-19T07:45:24;19.20;99.90
37242;DHT22;23135;51.078;12.108;2022-08-19T07:47:50;19.10;99.90
37242;DHT22;23135;51.078;12.108;2022-08-19T07:50:17;19.20;99.90
37242;DHT22;23135;51.078;12.108;2022-08-19T07:52:44;19.20;99.90
37242;DHT22;23135;51.078;12.108;2022-08-19T07:55:10;19.20;99.90
37242;DHT22;23135;51.078;12.108;2022-08-19T07:57:36;19.20;99.90
37242;DHT22;23135;51.078;12.108;2022-08-19T08:00:04;19.20;99.90
37242;DHT22;23135;51.078;12.108;2022-08-19T08:02:31;19.30;99.90
37242;DHT22;23135;51.078;12.108;2022-08-19T08:04:56;19.30;99.90
37242;DHT22;23135;51.078;12.108;2022-08-19T08:07:40;19.40;99.90
37242;DHT22;23135;51.078;12.108;2022-08-19T08:10:24;19.40;99.90
37242;DHT22;23135;51.078;12.108;2022-08-19T08:12:51;19.40;99.90
37242;DHT22;23135;51.078;12.108;2022-08-19T08:15:17;19.40;99.90
37242;DHT22;23135;51.078;12.108;2022-08-19T08:17:44;19.50;99.90
37242;DHT22;23135;51.078;12.108;2022-08-19T08:20:10;19.40;99.90
37242;DHT22;23135;51.078;12.108;2022-08-19T08:22:36;19.40;99.90
37242;DHT22;23135;51.078;12.108;2022-08-19T08:25:22;19.50;99.90
37242;DHT22;23135;51.078;12.108;2022-08-19T08:27:49;19.40;99.90
37242;DHT22;23135;51.078;12.108;2022-08-19T08:30:23;19.40;99.90
37242;DHT22;23135;51.078;12.108;2022-08-19T08:32:50;19.40;99.90
37242;DHT22;23135;51.078;12.108;2022-08-19T08:35:17;19.40;99.90
37242;DHT22;23135;51.078;12.108;2022-08-19T08:37:45;19.30;99.90
37242;DHT22;23135;51.078;12.108;2022-08-19T08:45:30;19.30;99.90
37242;DHT22;23135;51.078;12.108;2022-08-19T08:48:02;19.20;99.90
37242;DHT22;23135;51.078;12.108;2022-08-19T08:50:33;19.30;99.90
37242;DHT22;23135;51.078;12.108;2022-08-19T08:53:02;19.20;99.90
37242;DHT22;23135;51.078;12.108;2022-08-19T08:55:30;19.20;99.90
37242;DHT22;23135;51.078;12.108;2022-08-19T08:58:06;19.20;99.90
37242;DHT22;23135;51.078;12.108;2022-08-19T09:00:39;19.20;99.90
37242;DHT22;23135;51.078;12.108;2022-08-19T09:03:22;19.20;99.90
37242;DHT22;23135;51.078;12.108;2022-08-19T09:11:08;19.20;99.90
37242;DHT22;23135;51.078;12.108;2022-08-19T09:16:21;19.20;99.90
37242;DHT22;23135;51.078;12.108;2022-08-19T09:18:57;19.10;99.90
37242;DHT22;23135;51.078;12.108;2022-08-19T09:21:25;19.00;99.90
37242;DHT22;23135;51.078;12.108;2022-08-19T09:23:51;19.00;99.90
37242;DHT22;23135;51.078;12.108;2022-08-19T09:26:19;19.00;99.90
37242;DHT22;23135;51.078;12.108;2022-08-19T09:28:47;19.00;99.90
37242;DHT22;23135;51.078;12.108;2022-08-19T09:31:24;19.00;99.90
37242;DHT22;23135;51.078;12.108;2022-08-19T09:33:51;19.10;99.90
37242;DHT22;23135;51.078;12.108;2022-08-19T09:36:18;19.10;99.90
37242;DHT22;23135;51.078;12.108;2022-08-19T09:38:45;19.10;99.90
37242;DHT22;23135;51.078;12.108;2022-08-19T09:41:17;19.20;99.90
37242;DHT22;23135;51.078;12.108;2022-08-19T09:43:45;19.10;99.90
37242;DHT22;23135;51.078;12.108;2022-08-19T09:46:12;19.20;99.90
37242;DHT22;23135;51.078;12.108;2022-08-19T09:48:40;19.20;99.90
37242;DHT22;23135;51.078;12.108;2022-08-19T09:51:15;19.20;99.90
37242;DHT22;23135;51.078;12.108;2022-08-19T09:53:42;19.20;99.90
37242;DHT22;23135;51.078;12.108;2022-08-19T09:56:08;19.10;99.90
37242;DHT22;23135;51.078;12.108;2022-08-19T09:58:34;19.10;99.90
37242;DHT22;23135;51.078;12.108;2022-08-19T10:01:02;19.20;99.90
37242;DHT22;23135;51.078;12.108;2022-08-19T10:03:30;19.20;99.90
37242;DHT22;23135;51.078;12.108;2022-08-19T10:05:58;19.30;99.90
37242;DHT22;23135;51.078;12.108;2022-08-19T10:08:30;19.30;99.90
37242;DHT22;23135;51.078;12.108;2022-08-19T10:10:56;19.30;99.90
37242;DHT22;23135;51.078;12.108;2022-08-19T10:13:27;19.30;99.90
37242;DHT22;23135;51.078;12.108;2022-08-19T10:15:54;19.30;99.90
37242;DHT22;23135;51.078;12.108;2022-08-19T10:18:22;19.40;99.90
37242;DHT22;23135;51.078;12.108;2022-08-19T10:20:49;19.20;99.90
37242;DHT22;23135;51.078;12.108;2022-08-19T10:23:16;19.30;99.90
37242;DHT22;23135;51.078;12.108;2022-08-19T10:25:42;19.30;99.90
37242;DHT22;23135;51.078;12.108;2022-08-19T10:28:09;19.40;99.90
37242;DHT22;23135;51.078;12.108;2022-08-19T10:30:40;19.40;99.90
37242;DHT22;23135;51.078;12.108;2022-08-19T10:33:07;19.40;99.90
37242;DHT22;23135;51.078;12.108;2022-08-19T10:35:33;19.30;99.90
37242;DHT22;23135;51.078;12.108;2022-08-19T10:37:58;19.20;99.90
37242;DHT22;23135;51.078;12.108;2022-08-19T10:40:25;19.00;99.90
37242;DHT22;23135;51.078;12.108;2022-08-19T10:42:51;19.00;99.90
37242;DHT22;23135;51.078;12.108;2022-08-19T10:45:17;18.80;99.90
37242;DHT22;23135;51.078;12.108;2022-08-19T10:47:43;18.80;99.90
37242;DHT22;23135;51.078;12.108;2022-08-19T10:50:08;18.80;99.90
37242;DHT22;23135;51.078;12.108;2022-08-19T10:52:52;18.80;99.90
37242;DHT22;23135;51.078;12.108;2022-08-19T10:55:23;18.80;99.90
37242;DHT22;23135;51.078;12.108;2022-08-19T10:58:16;19.00;99.90
37242;DHT22;23135;51.078;12.108;2022-08-19T11:00:42;19.00;99.90
37242;DHT22;23135;51.078;12.108;2022-08-19T11:03:11;19.00;99.90
37242;DHT22;23135;51.078;12.108;2022-08-19T11:05:36;19.00;99.90
37242;DHT22;23135;51.078;12.108;2022-08-19T11:08:03;19.00;99.90
37242;DHT22;23135;51.078;12.108;2022-08-19T11:10:29;19.00;99.90
37242;DHT22;23135;51.078;12.108;2022-08-19T11:12:55;19.10;99.90
37242;DHT22;23135;51.078;12.108;2022-08-19T11:15:21;19.10;99.90
37242;DHT22;23135;51.078;12.108;2022-08-19T11:17:47;19.20;99.90
37242;DHT22;23135;51.078;12.108;2022-08-19T11:20:14;19.20;99.90
37242;DHT22;23135;51.078;12.108;2022-08-19T11:22:40;19.10;99.90
37242;DHT22;23135;51.078;12.108;2022-08-19T11:25:07;19.10;99.90
37242;DHT22;23135;51.078;12.108;2022-08-19T11:27:33;19.20;99.90
37242;DHT22;23135;51.078;12.108;2022-08-19T11:30:03;19.20;99.90
37242;DHT22;23135;51.078;12.108;2022-08-19T11:32:29;19.20;99.90
37242;DHT22;23135;51.078;12.108;2022-08-19T11:34:54;19.20;99.90
37242;DHT22;23135;51.078;12.108;2022-08-19T11:37:20;19.10;99.90
37242;DHT22;23135;51.078;12.108;2022-08-19T11:39:45;19.00;99.90
37242;DHT22;23135;51.078;12.108;2022-08-19T11:42:11;19.00;99.90
37242;DHT22;23135;51.078;12.108;2022-08-19T11:44:55;19.10;99.90
37242;DHT22;23135;51.078;12.108;2022-08-19T11:47:20;19.10;99.90
37242;DHT22;23135;51.078;12.108;2022-08-19T11:49:47;19.00;99.90
37242;DHT22;23135;51.078;12.108;2022-08-19T11:52:13;19.00;99.90
37242;DHT22;23135;51.078;12.108;2022-08-19T11:54:38;18.90;99.90
37242;DHT22;23135;51.078;12.108;2022-08-19T11:57:04;18.90;99.90
37242;DHT22;23135;51.078;12.108;2022-08-19T11:59:29;18.80;99.90
37242;DHT22;23135;51.078;12.108;2022-08-19T12:01:55;18.90;99.90
37242;DHT22;23135;51.078;12.108;2022-08-19T12:04:22;18.90;99.90
37242;DHT22;23135;51.078;12.108;2022-08-19T12:06:47;19.00;99.90
37242;DHT22;23135;51.078;12.108;2022-08-19T12:09:13;19.20;99.90
37242;DHT22;23135;51.078;12.108;2022-08-19T12:11:40;19.40;99.90
37242;DHT22;23135;51.078;12.108;2022-08-19T12:14:09;19.60;99.90
37242;DHT22;23135;51.078;12.108;2022-08-19T12:16:35;19.80;99.90
37242;DHT22;23135;51.078;12.108;2022-08-19T12:19:03;19.80;99.90
37242;DHT22;23135;51.078;12.108;2022-08-19T12:21:30;20.00;99.90
37242;DHT22;23135;51.078;12.108;2022-08-19T12:23:57;20.10;99.90
37242;DHT22;23135;51.078;12.108;2022-08-19T12:26:24;20.00;99.90
37242;DHT22;23135;51.078;12.108;2022-08-19T12:28:50;19.80;99.90
37242;DHT22;23135;51.078;12.108;2022-08-19T12:31:16;19.90;99.90
37242;DHT22;23135;51.078;12.108;2022-08-19T12:33:42;20.00;99.90
37242;DHT22;23135;51.078;12.108;2022-08-19T12:36:10;20.00;99.90
37242;DHT22;23135;51.078;12.108;2022-08-19T12:38:37;20.00;99.90
37242;DHT22;23135;51.078;12.108;2022-08-19T12:41:04;20.20;99.90
37242;DHT22;23135;51.078;12.108;2022-08-19T12:43:36;20.50;99.90
37242;DHT22;23135;51.078;12.108;2022-08-19T12:46:04;20.60;99.90
37242;DHT22;23135;51.078;12.108;2022-08-19T12:48:31;20.70;99.90
37242;DHT22;23135;51.078;12.108;2022-08-19T12:50:56;21.00;99.90
37242;DHT22;23135;51.078;12.108;2022-08-19T12:53:22;21.20;99.90
37242;DHT22;23135;51.078;12.108;2022-08-19T12:55:47;21.30;99.90
37242;DHT22;23135;51.078;12.108;2022-08-19T12:58:13;21.30;99.90
37242;DHT22;23135;51.078;12.108;2022-08-19T13:00:39;21.30;99.90
37242;DHT22;23135;51.078;12.108;2022-08-19T13:03:05;21.40;99.90
37242;DHT22;23135;51.078;12.108;2022-08-19T13:05:32;21.30;99.90
37242;DHT22;23135;51.078;12.108;2022-08-19T13:08:01;21.20;99.90
37242;DHT22;23135;51.078;12.108;2022-08-19T13:10:30;21.10;99.90
37242;DHT22;23135;51.078;12.108;2022-08-19T13:13:00;21.00;99.90
37242;DHT22;23135;51.078;12.108;2022-08-19T13:15:27;20.90;99.90
37242;DHT22;23135;51.078;12.108;2022-08-19T13:17:57;20.80;99.90
37242;DHT22;23135;51.078;12.108;2022-08-19T13:20:23;20.80;99.90
37242;DHT22;23135;51.078;12.108;2022-08-19T13:22:49;20.70;99.90
37242;DHT22;23135;51.078;12.108;2022-08-19T13:25:16;20.70;99.90
37242;DHT22;23135;51.078;12.108;2022-08-19T13:27:44;20.60;99.90
37242;DHT22;23135;51.078;12.108;2022-08-19T13:30:11;20.50;99.90
37242;DHT22;23135;51.078;12.108;2022-08-19T13:32:56;20.40;99.90
37242;DHT22;23135;51.078;12.108;2022-08-19T13:35:38;20.30;99.90
37242;DHT22;23135;51.078;12.108;2022-08-19T13:38:03;20.30;99.90
37242;DHT22;23135;51.078;12.108;2022-08-19T13:40:30;20.20;99.90
37242;DHT22;23135;51.078;12.108;2022-08-19T13:42:56;20.20;99.90
37242;DHT22;23135;51.078;12.108;2022-08-19T13:45:24;20.20;99.90
37242;DHT22;23135;51.078;12.108;2022-08-19T13:47:51;20.10;99.90
37242;DHT22;23135;51.078;12.108;2022-08-19T13:50:25;20.10;99.90
37242;DHT22;23135;51.078;12.108;2022-08-19T13:52:52;20.00;99.90
37242;DHT22;23135;51.078;12.108;2022-08-19T13:55:19;20.00;99.90
37242;DHT22;23135;51.078;12.108;2022-08-19T13:57:45;20.00;99.90
37242;DHT22;23135;51.078;12.108;2022-08-19T14:00:15;20.10;99.90
37242;DHT22;23135;51.078;12.108;2022-08-19T14:02:44;20.20;99.90
37242;DHT22;23135;51.078;12.108;2022-08-19T14:05:12;20.20;99.90
37242;DHT22;23135;51.078;12.108;2022-08-19T14:07:37;20.20;99.90
37242;DHT22;23135;51.078;12.108;2022-08-19T14:10:06;20.10;99.90
37242;DHT22;23135;51.078;12.108;2022-08-19T14:12:32;20.20;99.90
37242;DHT22;23135;51.078;12.108;2022-08-19T14:14:59;20.30;99.90
37242;DHT22;23135;51.078;12.108;2022-08-19T14:17:24;20.30;99.90
37242;DHT22;23135;51.078;12.108;2022-08-19T14:20:00;20.40;99.90
37242;DHT22;23135;51.078;12.108;2022-08-19T14:22:32;20.50;99.90
37242;DHT22;23135;51.078;12.108;2022-08-19T14:24:57;20.50;99.90
37242;DHT22;23135;51.078;12.108;2022-08-19T14:27:23;20.50;99.90
37242;DHT22;23135;51.078;12.108;2022-08-19T14:29:51;20.60;99.90
37242;DHT22;23135;51.078;12.108;2022-08-19T14:32:16;20.70;99.90
37242;DHT22;23135;51.078;12.108;2022-08-19T14:34:42;20.70;99.90
37242;DHT22;23135;51.078;12.108;2022-08-19T14:37:12;20.70;99.90
37242;DHT22;23135;51.078;12.108;2022-08-19T14:39:42;20.70;99.90
37242;DHT22;23135;51.078;12.108;2022-08-19T14:42:10;20.90;99.90
37242;DHT22;23135;51.078;12.108;2022-08-19T14:44:37;21.00;99.90
37242;DHT22;23135;51.078;12.108;2022-08-19T14:47:03;21.10;99.90
37242;DHT22;23135;51.078;12.108;2022-08-19T14:49:29;21.30;99.90
37242;DHT22;23135;51.078;12.108;2022-08-19T14:51:54;21.20;99.90
37242;DHT22;23135;51.078;12.108;2022-08-19T14:54:20;21.00;99.90
37242;DHT22;23135;51.078;12.108;2022-08-19T14:56:46;20.90;99.90
37242;DHT22;23135;51.078;12.108;2022-08-19T14:59:13;20.90;99.90
37242;DHT22;23135;51.078;12.108;2022-08-19T15:01:39;20.80;99.90
37242;DHT22;23135;51.078;12.108;2022-08-19T15:04:04;20.70;99.90
37242;DHT22;23135;51.078;12.108;2022-08-19T15:06:30;20.70;99.90
37242;DHT22;23135;51.078;12.108;2022-08-19T15:08:57;20.60;99.90
37242;DHT22;23135;51.078;12.108;2022-08-19T15:11:24;20.60;99.90
37242;DHT22;23135;51.078;12.108;2022-08-19T15:13:52;20.50;99.90
37242;DHT22;23135;51.078;12.108;2022-08-19T15:16:20;20.50;99.90
37242;DHT22;23135;51.078;12.108;2022-08-19T15:18:49;20.40;99.90
37242;DHT22;23135;51.078;12.108;2022-08-19T15:21:16;20.30;99.90
37242;DHT22;23135;51.078;12.108;2022-08-19T15:23:43;20.30;99.90
37242;DHT22;23135;51.078;12.108;2022-08-19T15:26:09;20.20;99.90
37242;DHT22;23135;51.078;12.108;2022-08-19T15:28:35;20.30;99.90
37242;DHT22;23135;51.078;12.108;2022-08-19T15:31:02;20.30;99.90
37242;DHT22;23135;51.078;12.108;2022-08-19T15:33:27;20.30;99.90
37242;DHT22;23135;51.078;12.108;2022-08-19T15:35:53;20.30;99.90